Yellowstone National Park, WY

11:22 AM MDT on August 29, 2014 (GMT -0600)
RAWS GREBE WY US | Change Station
CLOSE
Current Station
Personal Weather Station
Location: Yellowstone National Park, WY
Elevation: 7899 ft
Nearby Weather Stations

Elev 7899 ft 44.72 °N, 110.51 °W | Updated 33 minutes ago

Clear
Clear
58 °F
Feels Like 58 °F
N
5
Wind Variable Wind from SSE
Gusts 9.0 mph

Today
High -- | Low -- °F
--% Chance of Precip.
Yesterday
High -- | Low -- °F
Precip. -- in
6:40 AM 8:03 PM
Waxing Crescent, 15% visible
Pressure 30.21 in
Visibility 10.0 miles
Clouds Clear
Dew Point 49 °F
Humidity 72%
Rainfall 0.22 in
Snow Depth Not available.
UV 7 out of 12
Pollen 6.90 out of 12
Air Quality Not available.
Flu Activity Not available.
METAR KWYS 291710Z AUTO 00000KT 10SM CLR 17/08 A3021 RMK AO2

More Conditions Fewer Conditions

Pressure 30.21 in
Visibility 10.0 miles
Clouds Clear
Dew Point 49 °F
Humidity 72%
Rainfall 0.22 in
Snow Depth Not available.
UV 7 out of 12
Pollen 6.90 out of 12
Air Quality Not available.
Flu Activity Not available.
METAR KWYS 291710Z AUTO 00000KT 10SM CLR 17/08 A3021 RMK AO2

More Conditions Fewer Conditions

10-Day Weather Forecast

Almanac

Astronomy

Aug. 29, 2014 Rise Set
Actual Time 6:40 AM MDT 8:03 PM MDT
Civil Twilight 6:10 AM MDT 8:34 PM MDT
Nautical Twilight 5:33 AM MDT 9:10 PM MDT
Astronomical Twilight 4:54 AM MDT 9:49 PM MDT
Moon 10:45 AM MDT 9:51 PM MDT
Length of Visible Light 14h 24m
Length of Day
13h 23m
Tomorrow will be 2m 59s shorter.
Waxing Crescent, 15% of the Moon is Illuminated
Today
Waxing Crescent
Sep 2
First Quarter
Sep 8
Full
Sep 15
Last Quarter
Sep 24
New

Today's Extremes

State Highs State Lows

Community

WunderPhotos

Upload Photos

1,748,299 photos uploaded!

Nearby

Snow Depth

Station Depth Elevation
Parker Peak 0 in 9400 ft
Sylvan Lake 0 in 8420 ft
Evening Star 0 in 9200 ft
Lewis Lake Divide 0 in 7850 ft
Snake River Station 0 in 6920 ft

Earthquake Activity

City Distance Mag. Time & Date
No recent earthquake activity has been reported nearby.
Minimum magnitude displayed is 2.5.

Coastal Water Temperatures

Place Temperature
No Stations Reporting

Nearby Weather Stations